KDRO

Details ICAO KDRO (DRO)
Name DURANGO LA PLATA CO
Region United States
Timezone America/Denver (UTC-7.0)
Plans Departing 21
Arriving 27
Stats Elevation 6,685 ft / 2,038 m (AMSL)
Location 37.151517° -107.753768°
Runways 1
Magnetic Variation 9.261° E
Sunrise 2017-12-11 14:16:15 UTC / 2017-12-11 07:16:15 Local
Sunset 2017-12-11 23:55:28 UTC / 2017-12-11 16:55:28 Local
Advertisement - Login to hide

Runways

ID Width Length Bearing (true) Bearing (mag) Surface Threshold Offset Overrun Length
02 150 ft / 46 m 9,203 ft / 2,805 m 37.26° 28.00° Asphalt 0 ft / 0 m 0 ft / 0 m
20 150 ft / 46 m 9,203 ft / 2,805 m 217.27° 208.01° Asphalt 0 ft / 0 m 0 ft / 0 m

Approach Navaids

Runway Type Ident Frequency Range Bearing (true) Bearing (mag) Slope Elevation
02 Localiser IDRO 109.10 MHz 18 nm / 33 km 37.27° 28.01° - 6,689 ft / 2,039 m (AMSL)
02 Glidescope IDRO 109.10 MHz 10 nm / 19 km 37.26° 28.00° 3.00° 6,620 ft / 2,018 m (AMSL)

Map

Weather


0- 5 10 15 20 25 30 35+ Temperature / ° C

Clouds and Precipitation
Forecast for 2017-12-12 00:00 UTC. Updated 2 hours ago

Ground ~20,000 ft ~40,000 ft Winds

METAR

KDRO 112253Z AUTO 24007KT 10SM CLR 09/M15 A3038 RMK AO2 SLP312 T00891150

TAF

KDRO 111723Z 1118/1218 VRB04KT P6SM SKC

Frequencies

Recorded 120.62 MHz ASOS
Unicom 122.80 MHz CTAF/UNICOM
Warning: Do not use this data for real-world aviation or navigation. No guarantee of current accuracy is given.